Huvudsida
METAR-TAF:

METAR-TAF

Flygplatser :

Abha, Saudiarabien

latitud: 18-14N, longitud: 042-39E, höjd: 2090 m

Aktuellt väderrapport

Denna rapport gjordes för 29 minuter sedan, klockan 11:00 UTC
Vind 6 kt från syd/sydväst
Temperatur 14°C
Fuktighet 77%
Tryck 1025 hPa
Sikt: 8000 m
Brutna moln på en höjd av 2500 ft
Få moln på en höjd av 2500 ft, Cumulonimbus.
åska, regn

METAR: OEAB 201100Z 21006KT 8000 TSRA BKN025 FEW025CB 14/10 Q1025 NOSIG

Tid: 14:29 (11:29 UTC)

Väderprognos

Denna rapport gjordes för 6 timmar och 29 minuter sedan, klockan 05:00 UTC
Prognos gäller från 20 kl. 06 UTC till 20 kl. 15 UTC
Vind 10 kt från syd/sydväst i byarna ända upp till 20 kt
Sikt 10 km eller mer
Spridda moln på en höjd av 2000 ft
Temporärt
från 20 kl. 07 UTC till 20 kl. 15 UTC
Sikt: 5000 m
Brutna moln på en höjd av 2000 ft
Få moln på en höjd av 2500 ft, Cumulonimbus.
åska, regn

TAF: OEAB 200500Z 2006/2015 20010G20KT 9999 SCT020 TEMPO 2007/2015 5000 TSRA BKN020 FEW025CB

Aktuella väderrapporter och prognoser från 4000 flygplatser (METAR- och TAF-rapporter).

De tillgängliga stationerna syns som gula och röda prickar på kartan.

För musen över prickarna för att se namnen på stationerna.

Klicka sedan för att få väderrapporter och prognoser.

För att ändra kartan: Klicka på de gröna knapparna med ett svart kors på för att zooma in; den gröna knappen med ett streck på för att zooma ut; eller på de gröna pilarna för angränsande kartor.


METAR-TAF: